createdAt,value
2022-08-02T00:01:04.731Z,19.48
2022-08-02T00:03:33.128Z,19.48
2022-08-02T00:06:01.778Z,19.50
2022-08-02T00:08:30.022Z,19.52
2022-08-02T00:11:17.045Z,19.51
2022-08-02T00:14:04.892Z,19.51
2022-08-02T00:16:51.720Z,19.50
2022-08-02T00:19:38.837Z,19.51
2022-08-02T00:22:07.500Z,19.52
2022-08-02T00:24:35.954Z,19.55
2022-08-02T00:27:04.997Z,19.58
2022-08-02T00:29:50.474Z,19.60
2022-08-02T00:32:23.561Z,19.61
2022-08-02T00:34:52.528Z,19.61
2022-08-02T00:37:20.735Z,19.63
2022-08-02T00:39:48.956Z,19.63
2022-08-02T00:42:17.516Z,19.63
2022-08-02T00:44:45.859Z,19.62
2022-08-02T00:47:19.526Z,19.59
2022-08-02T00:49:48.429Z,19.56
2022-08-02T00:52:16.707Z,19.51
2022-08-02T00:54:44.974Z,19.48
2022-08-02T00:57:13.464Z,19.44
2022-08-02T00:59:42.283Z,19.39
2022-08-02T01:02:10.866Z,19.36
2022-08-02T01:04:40.542Z,19.33
2022-08-02T01:07:12.351Z,19.29
2022-08-02T01:09:45.824Z,19.25
2022-08-02T01:12:14.733Z,19.22
2022-08-02T01:14:48.240Z,19.20
2022-08-02T01:17:50.865Z,19.19
2022-08-02T01:20:25.318Z,19.19
2022-08-02T01:23:50.896Z,19.20
2022-08-02T01:26:29.094Z,19.21
2022-08-02T01:29:29.392Z,19.22
2022-08-02T01:32:12.338Z,19.21
2022-08-02T01:34:57.747Z,19.22
2022-08-02T01:37:41.690Z,19.21
2022-08-02T01:40:14.271Z,19.21
2022-08-02T01:42:47.595Z,19.22
2022-08-02T01:45:18.907Z,19.20
2022-08-02T01:47:49.947Z,19.21
2022-08-02T01:50:23.679Z,19.22
2022-08-02T01:52:55.242Z,19.23
2022-08-02T01:55:58.121Z,19.23
2022-08-02T01:58:27.705Z,19.22
2022-08-02T02:00:58.389Z,19.21
2022-08-02T02:03:29.432Z,19.21
2022-08-02T02:06:00.036Z,19.17
2022-08-02T02:08:33.275Z,19.14
2022-08-02T02:12:11.499Z,19.11
2022-08-02T02:13:53.505Z,19.08
2022-08-02T02:16:23.217Z,19.05
2022-08-02T02:18:53.676Z,19.02
2022-08-02T02:21:22.396Z,18.99
2022-08-02T02:23:51.128Z,18.96
2022-08-02T02:26:20.896Z,18.96
2022-08-02T02:29:04.813Z,18.94
2022-08-02T02:31:37.380Z,18.92
2022-08-02T02:34:10.678Z,18.92
2022-08-02T02:36:47.923Z,18.92
2022-08-02T02:39:20.909Z,18.90
2022-08-02T02:41:51.607Z,18.86
2022-08-02T02:44:21.781Z,18.82
2022-08-02T02:46:52.998Z,18.79
2022-08-02T02:49:23.297Z,18.76
2022-08-02T02:51:53.257Z,18.74
2022-08-02T02:54:33.787Z,18.73
2022-08-02T02:57:05.979Z,18.71
2022-08-02T02:59:42.554Z,18.70
2022-08-02T03:02:19.229Z,18.68
2022-08-02T03:04:55.856Z,18.66
2022-08-02T03:07:26.418Z,18.65
2022-08-02T03:09:55.358Z,18.65
2022-08-02T03:12:30.958Z,18.67
2022-08-02T03:15:04.441Z,18.68
2022-08-02T03:17:44.515Z,18.69
2022-08-02T03:20:18.505Z,18.73
2022-08-02T03:22:47.662Z,18.76
2022-08-02T03:25:17.530Z,18.80
2022-08-02T03:27:46.688Z,18.82
2022-08-02T03:30:15.626Z,18.83
2022-08-02T03:32:47.194Z,18.86
2022-08-02T03:35:23.346Z,18.88
2022-08-02T03:37:56.033Z,18.88
2022-08-02T03:40:25.581Z,18.90
2022-08-02T03:42:54.748Z,18.92
2022-08-02T03:45:24.659Z,18.98
2022-08-02T03:47:53.218Z,19.02
2022-08-02T03:50:25.787Z,19.07
2022-08-02T03:52:54.789Z,19.11
2022-08-02T03:55:23.443Z,19.16
2022-08-02T03:57:52.001Z,19.21
2022-08-02T04:00:23.191Z,19.26
2022-08-02T04:02:52.592Z,19.31
2022-08-02T04:05:20.906Z,19.31
2022-08-02T04:08:33.995Z,19.32
2022-08-02T04:10:56.732Z,19.33
2022-08-02T04:13:35.844Z,19.32
2022-08-02T04:16:15.042Z,19.33
2022-08-02T04:18:55.883Z,19.35
2022-08-02T04:21:49.075Z,19.38
2022-08-02T04:24:18.608Z,19.42
2022-08-02T04:26:49.089Z,19.48
2022-08-02T04:29:19.527Z,19.53
2022-08-02T04:31:48.636Z,19.59
2022-08-02T04:34:17.593Z,19.63
2022-08-02T04:36:47.172Z,19.68
2022-08-02T04:39:15.681Z,19.74
2022-08-02T04:41:46.507Z,19.77
2022-08-02T04:44:15.409Z,19.83
2022-08-02T04:46:44.809Z,19.89
2022-08-02T04:49:13.388Z,19.96
2022-08-02T04:51:43.620Z,20.02
2022-08-02T04:54:12.345Z,20.07
2022-08-02T04:56:41.476Z,20.14
2022-08-02T04:59:09.906Z,20.19
2022-08-02T05:01:42.764Z,20.28
2022-08-02T05:04:11.368Z,20.36
2022-08-02T05:06:40.005Z,20.44
2022-08-02T05:09:08.735Z,20.50
2022-08-02T05:11:37.482Z,20.57
2022-08-02T05:14:06.403Z,20.64
2022-08-02T05:16:34.615Z,20.69
2022-08-02T05:19:03.554Z,20.74
2022-08-02T05:21:32.195Z,20.77
2022-08-02T05:24:00.736Z,20.81
2022-08-02T05:26:29.312Z,20.86
2022-08-02T05:28:57.665Z,20.91
2022-08-02T05:31:25.977Z,20.94
2022-08-02T05:33:54.452Z,20.93
2022-08-02T05:36:22.933Z,20.94
2022-08-02T05:38:51.951Z,20.97
2022-08-02T05:41:21.077Z,21.00
2022-08-02T05:43:49.403Z,21.01
2022-08-02T05:46:17.671Z,20.81
2022-08-02T05:48:46.106Z,20.50
2022-08-02T05:51:32.963Z,20.26
2022-08-02T05:54:05.241Z,20.07
2022-08-02T05:56:38.936Z,19.90
2022-08-02T05:59:18.054Z,19.76
2022-08-02T06:01:49.275Z,19.66
2022-08-02T06:04:30.833Z,19.59
2022-08-02T06:07:02.934Z,19.52
2022-08-02T06:09:32.927Z,19.46
2022-08-02T06:12:03.538Z,19.45
2022-08-02T06:14:33.740Z,19.44
2022-08-02T06:17:05.839Z,19.44
2022-08-02T06:19:51.696Z,19.44
2022-08-02T06:22:35.943Z,19.45
2022-08-02T06:25:06.461Z,19.45
2022-08-02T06:27:41.427Z,19.47
2022-08-02T06:30:11.273Z,19.47
2022-08-02T06:32:39.933Z,19.48
2022-08-02T06:35:08.923Z,19.50
2022-08-02T06:37:48.375Z,19.51
2022-08-02T06:41:04.834Z,19.51
2022-08-02T06:43:45.116Z,19.55
2022-08-02T06:46:37.766Z,19.59
2022-08-02T06:49:02.593Z,19.62
2022-08-02T06:51:31.309Z,19.64
2022-08-02T06:53:59.803Z,19.69
2022-08-02T06:56:28.285Z,19.76
2022-08-02T06:58:56.768Z,19.86
2022-08-02T07:01:25.034Z,19.94
2022-08-02T07:03:53.569Z,20.00
2022-08-02T07:06:22.415Z,20.03
2022-08-02T07:09:18.036Z,20.03
2022-08-02T07:11:39.403Z,20.03
2022-08-02T07:14:07.727Z,20.05
2022-08-02T07:16:35.897Z,20.06
2022-08-02T07:19:04.581Z,20.09
2022-08-02T07:21:56.980Z,20.13
2022-08-02T07:24:21.469Z,20.18
2022-08-02T07:27:09.874Z,20.18
2022-08-02T07:29:46.518Z,20.17
2022-08-02T07:32:22.185Z,20.17
2022-08-02T07:34:53.419Z,20.22
2022-08-02T07:37:35.822Z,20.26
2022-08-02T07:40:13.854Z,20.32
2022-08-02T07:42:43.857Z,20.36
2022-08-02T07:45:13.669Z,20.39
2022-08-02T07:47:44.207Z,20.41
2022-08-02T07:50:15.116Z,20.43
2022-08-02T07:52:44.947Z,20.46
2022-08-02T07:55:15.092Z,20.50
2022-08-02T07:57:46.399Z,20.57
2022-08-02T08:00:17.669Z,20.65
2022-08-02T08:02:47.476Z,20.72
2022-08-02T08:05:16.073Z,20.78
2022-08-02T08:07:44.570Z,20.86
2022-08-02T08:10:12.977Z,20.92
2022-08-02T08:12:41.260Z,20.99
2022-08-02T08:15:10.931Z,21.06
2022-08-02T08:17:39.395Z,21.10
2022-08-02T08:20:08.855Z,21.12
2022-08-02T08:22:38.696Z,21.14
2022-08-02T08:25:07.312Z,21.15
2022-08-02T08:27:36.122Z,21.18
2022-08-02T08:30:05.201Z,21.21
2022-08-02T08:32:33.706Z,21.26
2022-08-02T08:35:03.731Z,21.29
2022-08-02T08:37:40.950Z,21.34
2022-08-02T08:40:11.478Z,21.42
2022-08-02T08:42:40.500Z,21.50
2022-08-02T08:45:09.665Z,21.58
2022-08-02T08:47:42.713Z,21.64
2022-08-02T08:50:21.532Z,21.71
2022-08-02T08:53:05.053Z,21.79
2022-08-02T08:55:37.230Z,21.88
2022-08-02T08:58:05.740Z,21.94
2022-08-02T09:00:36.091Z,22.03
2022-08-02T09:03:06.581Z,22.13
2022-08-02T09:05:36.966Z,22.22
2022-08-02T09:08:06.676Z,22.31
2022-08-02T09:10:40.100Z,22.41
2022-08-02T09:13:38.995Z,22.49
2022-08-02T09:16:12.597Z,22.55
2022-08-02T09:18:45.022Z,22.61
2022-08-02T09:21:15.511Z,22.66
2022-08-02T09:23:48.141Z,22.71
2022-08-02T09:26:22.196Z,22.76
2022-08-02T09:28:52.792Z,22.85
2022-08-02T09:31:23.146Z,22.93
2022-08-02T09:33:57.459Z,23.04
2022-08-02T09:36:27.425Z,23.10
2022-08-02T09:39:01.861Z,23.15
2022-08-02T09:41:34.143Z,23.23
2022-08-02T09:44:06.969Z,23.29
2022-08-02T09:46:38.813Z,23.36
2022-08-02T09:49:19.132Z,23.42
2022-08-02T09:51:47.819Z,23.47
2022-08-02T09:54:19.459Z,23.50
2022-08-02T09:56:50.659Z,23.54
2022-08-02T09:59:21.739Z,23.56
2022-08-02T10:01:58.964Z,23.59
2022-08-02T10:04:34.409Z,23.68
2022-08-02T10:07:22.517Z,23.74
2022-08-02T10:09:52.429Z,23.81
2022-08-02T10:12:23.189Z,23.89
2022-08-02T10:14:52.230Z,23.98
2022-08-02T10:17:22.067Z,24.12
2022-08-02T10:20:03.180Z,24.31
2022-08-02T10:22:34.534Z,24.51
2022-08-02T10:25:07.103Z,24.69
2022-08-02T10:28:02.486Z,24.89
2022-08-02T10:30:27.491Z,25.12
2022-08-02T10:32:58.031Z,25.31
2022-08-02T10:35:27.176Z,25.51
2022-08-02T10:38:04.393Z,25.69
2022-08-02T10:40:55.481Z,25.89
2022-08-02T10:43:33.201Z,26.05
2022-08-02T10:46:21.136Z,26.18
2022-08-02T10:49:37.503Z,26.26
2022-08-02T10:52:07.886Z,26.33
2022-08-02T10:54:39.618Z,26.40
2022-08-02T10:57:24.641Z,26.52
2022-08-02T11:00:01.364Z,26.67
2022-08-02T11:02:38.708Z,26.85
2022-08-02T11:05:16.314Z,27.04
2022-08-02T11:07:50.385Z,27.28
2022-08-02T11:10:34.111Z,27.56
2022-08-02T11:13:08.439Z,27.83
2022-08-02T11:15:54.052Z,28.16
2022-08-02T11:18:24.527Z,28.51
2022-08-02T11:21:28.627Z,28.84
2022-08-02T11:24:17.198Z,29.20
2022-08-02T11:26:45.832Z,29.47
2022-08-02T11:29:15.590Z,29.69
2022-08-02T11:31:47.620Z,29.87
2022-08-02T11:34:36.449Z,30.01
2022-08-02T11:37:05.965Z,30.16
2022-08-02T11:39:34.601Z,30.23
2022-08-02T11:42:03.494Z,30.29
2022-08-02T11:44:41.653Z,30.36
2022-08-02T11:47:10.390Z,30.44
2022-08-02T11:49:38.991Z,30.52
2022-08-02T11:52:11.534Z,30.59
2022-08-02T11:54:42.686Z,30.71
2022-08-02T11:57:21.620Z,30.85
2022-08-02T11:59:53.205Z,31.02
2022-08-02T12:02:30.158Z,31.17
2022-08-02T12:05:02.136Z,31.25
2022-08-02T12:07:36.931Z,31.22
2022-08-02T12:10:18.754Z,31.13
2022-08-02T12:13:05.745Z,31.12
2022-08-02T12:15:41.816Z,31.20
2022-08-02T12:18:31.384Z,31.35
2022-08-02T12:21:00.507Z,31.55
2022-08-02T12:23:29.791Z,31.72
2022-08-02T12:26:03.752Z,31.91
2022-08-02T12:28:40.756Z,32.10
2022-08-02T12:31:11.531Z,32.30
2022-08-02T12:33:54.098Z,32.46
2022-08-02T12:36:28.071Z,32.59
2022-08-02T12:38:59.294Z,32.57
2022-08-02T12:41:31.764Z,32.41
2022-08-02T12:44:01.180Z,32.17
2022-08-02T12:46:31.782Z,31.91
2022-08-02T12:49:18.339Z,31.67
2022-08-02T12:51:58.999Z,31.48
2022-08-02T12:54:32.834Z,31.33
2022-08-02T12:57:12.936Z,31.31
2022-08-02T12:59:45.275Z,31.36
2022-08-02T13:02:14.982Z,31.28
2022-08-02T13:04:49.933Z,31.09
2022-08-02T13:07:20.045Z,30.81
2022-08-02T13:09:50.264Z,30.58
2022-08-02T13:12:18.609Z,30.47
2022-08-02T13:14:47.332Z,30.49
2022-08-02T13:17:15.905Z,30.62
2022-08-02T13:19:44.108Z,30.83
2022-08-02T13:22:13.363Z,31.10
2022-08-02T13:24:55.883Z,31.39
2022-08-02T13:27:26.840Z,31.73
2022-08-02T13:29:57.356Z,32.00
2022-08-02T13:32:28.185Z,32.25
2022-08-02T13:34:58.244Z,32.51
2022-08-02T13:37:26.520Z,32.72
2022-08-02T13:40:20.170Z,32.92
2022-08-02T13:42:43.905Z,33.11
2022-08-02T13:45:14.433Z,33.27
2022-08-02T13:48:03.469Z,33.47
2022-08-02T13:50:34.162Z,33.73
2022-08-02T13:53:02.374Z,33.93
2022-08-02T13:55:31.145Z,34.06
2022-08-02T13:58:00.316Z,34.20
2022-08-02T14:00:35.410Z,34.34
2022-08-02T14:03:11.948Z,34.45
2022-08-02T14:05:48.535Z,34.49
2022-08-02T14:08:19.395Z,34.47
2022-08-02T14:10:51.612Z,34.49
2022-08-02T14:13:20.460Z,34.50
2022-08-02T14:15:49.202Z,34.55
2022-08-02T14:18:17.990Z,34.53
2022-08-02T14:20:47.189Z,34.47
2022-08-02T14:23:15.539Z,34.41
2022-08-02T14:25:43.824Z,34.37
2022-08-02T14:28:12.707Z,34.40
2022-08-02T14:30:40.907Z,34.42
2022-08-02T14:33:09.180Z,34.45
2022-08-02T14:35:38.356Z,34.46
2022-08-02T14:38:07.268Z,34.45
2022-08-02T14:40:36.234Z,34.42
2022-08-02T14:43:05.334Z,34.40
2022-08-02T14:45:36.725Z,34.38
2022-08-02T14:48:12.250Z,34.38
2022-08-02T14:50:40.746Z,34.36
2022-08-02T14:53:12.098Z,34.35
2022-08-02T14:55:43.175Z,34.33
2022-08-02T14:58:12.309Z,34.34
2022-08-02T15:00:41.583Z,34.31
2022-08-02T15:03:12.021Z,34.27
2022-08-02T15:05:40.605Z,34.22
2022-08-02T15:08:08.986Z,34.15
2022-08-02T15:10:38.182Z,34.02
2022-08-02T15:13:07.429Z,33.86
2022-08-02T15:15:43.050Z,33.70
2022-08-02T15:18:14.531Z,33.56
2022-08-02T15:20:45.375Z,33.45
2022-08-02T15:23:37.101Z,33.28
2022-08-02T15:26:06.261Z,33.12
2022-08-02T15:28:35.333Z,32.99
2022-08-02T15:31:03.607Z,32.86
2022-08-02T15:33:32.089Z,32.64
2022-08-02T15:36:01.129Z,32.44
2022-08-02T15:38:29.619Z,32.25
2022-08-02T15:40:58.114Z,32.07
2022-08-02T15:43:26.580Z,31.86
2022-08-02T15:45:55.111Z,31.63
2022-08-02T15:48:23.411Z,31.45
2022-08-02T15:50:52.382Z,31.30
2022-08-02T15:53:20.735Z,31.18
2022-08-02T15:56:04.223Z,31.04
2022-08-02T15:58:44.213Z,30.89
2022-08-02T16:01:13.535Z,30.73
2022-08-02T16:03:42.250Z,30.57
2022-08-02T16:06:10.534Z,30.39
2022-08-02T16:08:39.027Z,30.27
2022-08-02T16:11:23.086Z,30.15
2022-08-02T16:13:54.148Z,30.05
2022-08-02T16:16:25.250Z,29.95
2022-08-02T16:18:54.243Z,29.87
2022-08-02T16:21:23.811Z,29.82
2022-08-02T16:23:59.200Z,29.76
2022-08-02T16:26:32.070Z,29.68
2022-08-02T16:29:01.921Z,29.57
2022-08-02T16:31:30.768Z,29.43
2022-08-02T16:33:59.220Z,29.30
2022-08-02T16:36:28.623Z,29.18
2022-08-02T16:38:57.116Z,29.08
2022-08-02T16:41:45.568Z,29.05
2022-08-02T16:44:15.569Z,29.07
2022-08-02T16:46:45.588Z,29.10
2022-08-02T16:50:05.874Z,29.09
2022-08-02T16:52:03.600Z,29.06
2022-08-02T16:54:31.919Z,29.02
2022-08-02T16:57:00.605Z,29.01
2022-08-02T16:59:34.027Z,29.00
2022-08-02T17:02:17.908Z,28.94
2022-08-02T17:04:47.586Z,28.82
2022-08-02T17:08:07.385Z,28.66
2022-08-02T17:10:09.515Z,28.52
2022-08-02T17:12:39.254Z,28.40
2022-08-02T17:16:17.259Z,28.25
2022-08-02T17:17:57.823Z,28.01
2022-08-02T17:20:26.464Z,27.82
2022-08-02T17:22:54.841Z,27.67
2022-08-02T17:25:24.769Z,27.53
2022-08-02T17:27:55.874Z,27.34
2022-08-02T17:30:26.627Z,27.11
2022-08-02T17:32:59.238Z,26.86
2022-08-02T17:35:39.958Z,26.62
2022-08-02T17:38:26.103Z,26.34
2022-08-02T17:40:55.883Z,26.04
2022-08-02T17:43:29.006Z,25.76
2022-08-02T17:46:01.004Z,25.46
2022-08-02T17:48:55.069Z,25.16
2022-08-02T17:52:49.188Z,24.82
2022-08-02T17:54:28.740Z,24.54
2022-08-02T17:56:58.891Z,24.28
2022-08-02T17:59:30.871Z,24.05
2022-08-02T18:02:11.520Z,23.81
2022-08-02T18:04:40.078Z,23.60
2022-08-02T18:07:10.285Z,23.39
2022-08-02T18:09:43.511Z,23.18
2022-08-02T18:12:15.041Z,22.98
2022-08-02T18:14:49.066Z,22.80
2022-08-02T18:17:17.835Z,22.63
2022-08-02T18:19:57.497Z,22.44
2022-08-02T18:22:28.020Z,22.24
2022-08-02T18:24:56.531Z,22.08
2022-08-02T18:27:24.970Z,21.92
2022-08-02T18:30:04.043Z,21.76
2022-08-02T18:33:53.938Z,21.59
2022-08-02T18:35:23.616Z,21.43
2022-08-02T18:37:57.173Z,21.31
2022-08-02T18:40:30.076Z,21.16
2022-08-02T18:42:58.970Z,21.03
2022-08-02T18:45:42.075Z,20.89
2022-08-02T18:48:20.556Z,20.76
2022-08-02T18:50:50.548Z,20.63
2022-08-02T18:53:39.296Z,20.51
2022-08-02T18:56:08.083Z,20.39
2022-08-02T18:58:36.490Z,20.27
2022-08-02T19:01:14.842Z,20.15
2022-08-02T19:03:50.919Z,20.04
2022-08-02T19:06:20.212Z,19.93
2022-08-02T19:09:05.350Z,19.82
2022-08-02T19:11:40.935Z,19.71
2022-08-02T19:14:10.455Z,19.63
2022-08-02T19:16:38.944Z,19.53
2022-08-02T19:19:07.360Z,19.43
2022-08-02T19:22:17.276Z,19.33
2022-08-02T19:24:25.029Z,19.23
2022-08-02T19:26:55.067Z,19.12
2022-08-02T19:29:25.183Z,19.01
2022-08-02T19:32:42.422Z,18.90
2022-08-02T19:35:04.035Z,18.78
2022-08-02T19:37:53.194Z,18.67
2022-08-02T19:40:24.661Z,18.57
2022-08-02T19:45:49.035Z,18.69
2022-08-02T19:48:23.874Z,18.93
2022-08-02T19:50:59.244Z,19.10
2022-08-02T19:56:25.180Z,19.27
2022-08-02T19:58:57.796Z,19.33
2022-08-02T20:01:36.964Z,19.39
2022-08-02T20:04:12.929Z,19.42
2022-08-02T20:06:46.105Z,19.45
2022-08-02T20:09:21.236Z,19.46
2022-08-02T20:11:54.376Z,19.47
2022-08-02T20:14:27.369Z,19.47
2022-08-02T20:16:57.395Z,19.46
2022-08-02T20:19:29.567Z,19.45
2022-08-02T20:22:09.409Z,19.44
2022-08-02T20:24:38.284Z,19.42
2022-08-02T20:27:07.894Z,19.40
2022-08-02T20:29:43.030Z,19.39
2022-08-02T20:32:17.474Z,19.38
2022-08-02T20:34:48.659Z,19.34
2022-08-02T20:37:59.455Z,19.31
2022-08-02T20:40:07.271Z,19.29
2022-08-02T20:42:36.126Z,19.28
2022-08-02T20:45:05.921Z,19.25
2022-08-02T20:47:40.006Z,19.22
2022-08-02T20:53:18.396Z,19.15
2022-08-02T20:55:54.661Z,19.12
2022-08-02T20:58:27.358Z,19.11
2022-08-02T21:00:59.920Z,19.09
2022-08-02T21:03:38.899Z,19.08
2022-08-02T21:06:10.185Z,19.06
2022-08-02T21:08:39.477Z,19.05
2022-08-02T21:11:09.182Z,19.05
2022-08-02T21:13:47.349Z,19.06
2022-08-02T21:16:26.607Z,19.05
2022-08-02T21:19:00.174Z,19.03
2022-08-02T21:21:29.822Z,19.01
2022-08-02T21:24:00.261Z,18.98
2022-08-02T21:26:30.995Z,18.98
2022-08-02T21:29:03.491Z,18.96
2022-08-02T21:31:35.775Z,18.95
2022-08-02T21:34:07.571Z,18.94
2022-08-02T21:36:51.038Z,18.91
2022-08-02T21:39:20.658Z,18.90
2022-08-02T21:41:49.464Z,18.90
2022-08-02T21:44:20.381Z,18.87
2022-08-02T21:46:51.748Z,18.84
2022-08-02T21:49:27.418Z,18.81
2022-08-02T21:52:11.246Z,18.79
2022-08-02T21:54:40.833Z,18.77
2022-08-02T21:57:16.585Z,18.75
2022-08-02T21:59:46.690Z,18.74
2022-08-02T22:02:18.411Z,18.74
2022-08-02T22:04:47.775Z,18.74
2022-08-02T22:07:24.351Z,18.73
2022-08-02T22:09:53.558Z,18.69
2022-08-02T22:12:26.421Z,18.67
2022-08-02T22:14:56.501Z,18.64
2022-08-02T22:17:51.424Z,18.61
2022-08-02T22:20:18.238Z,18.59
2022-08-02T22:22:50.083Z,18.58
2022-08-02T22:25:27.230Z,18.58
2022-08-02T22:28:36.023Z,18.58
2022-08-02T22:30:56.795Z,18.57
2022-08-02T22:33:47.265Z,18.56
2022-08-02T22:36:30.516Z,18.53
2022-08-02T22:39:00.444Z,18.51
2022-08-02T22:42:01.568Z,18.49
2022-08-02T22:44:18.785Z,18.47
2022-08-02T22:46:49.995Z,18.46
2022-08-02T22:49:36.979Z,18.45
2022-08-02T22:52:07.858Z,18.45
2022-08-02T22:54:36.707Z,18.45
2022-08-02T22:57:06.650Z,18.44
2022-08-02T22:58:53.720Z,19.20
2022-08-02T22:59:05.254Z,18.51
2022-08-02T22:59:05.255Z,19.19
2022-08-02T22:59:36.047Z,18.43
2022-08-02T23:02:10.406Z,18.44
2022-08-02T23:04:38.853Z,18.48
2022-08-02T23:07:07.154Z,18.46
2022-08-02T23:09:36.107Z,18.44
2022-08-02T23:12:05.114Z,18.41
2022-08-02T23:14:33.397Z,18.37
2022-08-02T23:17:20.903Z,18.33
2022-08-02T23:19:51.853Z,18.30
2022-08-02T23:22:29.959Z,18.29
2022-08-02T23:25:01.508Z,18.27
2022-08-02T23:27:31.765Z,18.25
2022-08-02T23:30:01.050Z,18.22
2022-08-02T23:32:29.376Z,18.19
2022-08-02T23:34:58.973Z,18.17
2022-08-02T23:37:27.379Z,18.16
2022-08-02T23:39:55.691Z,18.16
2022-08-02T23:42:25.664Z,18.21
2022-08-02T23:44:54.387Z,18.23
2022-08-02T23:47:22.622Z,18.24
2022-08-02T23:49:51.553Z,18.32
2022-08-02T23:52:20.248Z,18.36
2022-08-02T23:54:48.466Z,18.37
2022-08-02T23:57:20.087Z,18.38
2022-08-02T23:59:52.734Z,18.40
